createdAt,value
2023-02-03T00:02:39.169Z,1.20
2023-02-03T00:07:41.989Z,1.33
2023-02-03T00:12:44.153Z,1.38
2023-02-03T00:17:46.323Z,1.50
2023-02-03T00:22:48.843Z,1.50
2023-02-03T00:27:51.243Z,1.10
2023-02-03T00:32:54.397Z,1.35
2023-02-03T00:37:57.803Z,2.13
2023-02-03T00:42:59.979Z,1.42
2023-02-03T00:48:02.141Z,1.70
2023-02-03T00:53:04.335Z,1.50
2023-02-03T00:58:06.595Z,1.52
2023-02-03T01:03:08.830Z,1.42
2023-02-03T01:08:11.195Z,1.50
2023-02-03T01:13:14.029Z,1.67
2023-02-03T01:18:16.218Z,1.77
2023-02-03T01:23:19.537Z,2.10
2023-02-03T01:28:21.800Z,1.05
2023-02-03T01:33:24.184Z,1.27
2023-02-03T01:38:26.366Z,1.30
2023-02-03T01:43:34.652Z,1.52
2023-02-03T01:48:36.852Z,1.60
2023-02-03T01:53:39.403Z,1.52
2023-02-03T01:58:43.188Z,1.73
2023-02-03T02:03:55.069Z,1.17
2023-02-03T02:09:04.803Z,1.90
2023-02-03T02:14:08.029Z,1.20
2023-02-03T02:19:29.352Z,1.63
2023-02-03T02:24:43.677Z,1.70
2023-02-03T02:30:05.127Z,1.60
2023-02-03T02:35:18.350Z,1.52
2023-02-03T02:41:00.992Z,2.97
2023-02-03T02:46:19.460Z,1.83
2023-02-03T02:51:24.370Z,2.67
2023-02-03T02:56:28.833Z,2.05
2023-02-03T03:01:31.449Z,1.67
2023-02-03T03:06:38.512Z,1.83
2023-02-03T03:12:08.591Z,2.10
2023-02-03T03:17:14.326Z,1.55
2023-02-03T03:22:18.704Z,2.30
2023-02-03T03:27:24.139Z,2.42
2023-02-03T03:32:28.273Z,2.63
2023-02-03T03:37:38.201Z,2.45
2023-02-03T03:43:01.487Z,2.75
2023-02-03T03:48:29.195Z,1.92
2023-02-03T03:53:33.972Z,2.15
2023-02-03T03:58:39.403Z,2.15
2023-02-03T04:03:47.132Z,1.52
2023-02-03T04:08:49.345Z,1.45
2023-02-03T04:13:51.534Z,1.33
2023-02-03T04:18:53.812Z,1.20
2023-02-03T04:23:57.007Z,1.25
2023-02-03T04:28:59.211Z,1.38
2023-02-03T04:34:01.501Z,1.33
2023-02-03T04:39:04.188Z,0.93
2023-02-03T04:44:06.340Z,0.95
2023-02-03T04:49:11.693Z,0.85
2023-02-03T04:54:13.967Z,1.00
2023-02-03T04:59:16.129Z,1.50
2023-02-03T05:04:18.686Z,1.63
2023-02-03T05:09:20.777Z,1.40
2023-02-03T05:14:23.060Z,1.30
2023-02-03T05:19:25.304Z,1.27
2023-02-03T05:24:27.519Z,1.42
2023-02-03T05:29:29.666Z,1.55
2023-02-03T05:34:31.900Z,1.70
2023-02-03T05:39:34.039Z,1.38
2023-02-03T05:44:36.199Z,1.45
2023-02-03T05:49:38.358Z,2.33
2023-02-03T05:54:40.472Z,1.67
2023-02-03T05:59:42.862Z,1.42
2023-02-03T06:04:45.045Z,1.60
2023-02-03T06:09:47.651Z,1.88
2023-02-03T06:14:49.772Z,1.95
2023-02-03T06:19:51.888Z,2.58
2023-02-03T06:24:53.986Z,1.95
2023-02-03T06:29:56.105Z,3.67
2023-02-03T06:34:58.248Z,2.35
2023-02-03T06:40:00.356Z,3.33
2023-02-03T06:45:02.973Z,4.20
2023-02-03T06:50:05.971Z,3.35
2023-02-03T06:55:08.416Z,3.47
2023-02-03T07:00:13.842Z,2.80
2023-02-03T07:05:16.559Z,3.35
2023-02-03T07:10:18.869Z,2.90
2023-02-03T07:15:21.028Z,2.20
2023-02-03T07:20:24.734Z,2.40
2023-02-03T07:25:27.193Z,1.70
2023-02-03T07:30:29.580Z,1.50
2023-02-03T07:35:31.922Z,1.85
2023-02-03T07:40:34.065Z,2.05
2023-02-03T07:45:36.202Z,1.83
2023-02-03T07:50:38.760Z,1.30
2023-02-03T07:55:40.882Z,1.00
2023-02-03T08:00:43.647Z,0.57
2023-02-03T08:05:45.865Z,1.13
2023-02-03T08:10:47.957Z,0.70
2023-02-03T08:15:50.063Z,0.95
2023-02-03T08:20:52.302Z,4.95
2023-02-03T08:25:54.564Z,4.72
2023-02-03T08:30:57.795Z,3.30
2023-02-03T08:36:01.146Z,3.03
2023-02-03T08:41:09.931Z,1.70
2023-02-03T08:46:13.461Z,1.73
2023-02-03T08:51:17.058Z,1.67
2023-02-03T08:56:19.353Z,1.40
2023-02-03T09:01:21.999Z,1.30
2023-02-03T09:06:26.293Z,1.13
2023-02-03T09:11:28.516Z,1.77
2023-02-03T09:16:31.092Z,1.30
2023-02-03T09:21:34.147Z,1.50
2023-02-03T09:26:40.756Z,3.13
2023-02-03T09:31:43.879Z,0.98
2023-02-03T09:36:46.577Z,1.52
2023-02-03T09:42:07.507Z,1.30
2023-02-03T09:47:15.836Z,1.33
2023-02-03T09:52:28.570Z,0.93
2023-02-03T09:57:35.368Z,1.27
2023-02-03T10:02:56.155Z,1.23
2023-02-03T10:08:22.227Z,1.63
2023-02-03T10:13:41.873Z,1.30
2023-02-03T10:18:52.140Z,1.05
2023-02-03T10:23:57.232Z,1.50
2023-02-03T10:29:25.178Z,0.80
2023-02-03T10:34:27.407Z,1.10
2023-02-03T10:39:39.544Z,0.85
2023-02-03T10:44:47.500Z,0.88
2023-02-03T10:49:54.978Z,1.17
2023-02-03T10:54:59.500Z,0.80
2023-02-03T11:00:32.631Z,1.50
2023-02-03T11:05:35.452Z,1.83
2023-02-03T11:10:40.677Z,0.90
2023-02-03T11:15:53.868Z,0.90
2023-02-03T11:20:57.965Z,1.08
2023-02-03T11:26:09.116Z,0.88
2023-02-03T11:31:21.763Z,0.70
2023-02-03T11:36:27.622Z,3.03
2023-02-03T11:41:40.365Z,1.10
2023-02-03T11:46:45.014Z,1.65
2023-02-03T11:51:52.902Z,0.82
2023-02-03T11:57:28.565Z,1.02
2023-02-03T12:02:42.593Z,0.75
2023-02-03T12:07:50.143Z,1.05
2023-02-03T12:13:12.229Z,0.80
2023-02-03T12:18:52.019Z,0.88
2023-02-03T12:24:03.333Z,0.63
2023-02-03T12:29:13.394Z,1.33
2023-02-03T12:34:53.050Z,0.88
2023-02-03T12:40:04.867Z,0.80
2023-02-03T12:45:13.744Z,0.60
2023-02-03T12:50:30.496Z,1.10
2023-02-03T12:55:36.099Z,0.63
2023-02-03T13:00:46.171Z,0.60
2023-02-03T13:05:57.597Z,0.88
2023-02-03T13:11:32.165Z,0.80
2023-02-03T13:16:39.241Z,1.70
2023-02-03T13:21:42.171Z,0.70
2023-02-03T13:27:18.346Z,0.85
2023-02-03T13:32:30.154Z,0.50
2023-02-03T13:37:58.870Z,0.57
2023-02-03T13:43:06.048Z,0.63
2023-02-03T13:48:24.675Z,0.15
2023-02-03T13:53:28.736Z,0.10
2023-02-03T13:58:34.091Z,0.10
2023-02-03T14:03:36.230Z,0.28
2023-02-03T14:08:38.303Z,0.20
2023-02-03T14:13:40.472Z,1.02
2023-02-03T14:18:46.684Z,1.05
2023-02-03T14:23:55.672Z,0.50
2023-02-03T14:28:58.477Z,0.32
2023-02-03T14:34:12.981Z,1.10
2023-02-03T14:39:18.517Z,1.10
2023-02-03T14:44:38.688Z,0.50
2023-02-03T14:49:47.001Z,0.93
2023-02-03T14:55:12.231Z,1.33
2023-02-03T15:00:20.056Z,1.20
2023-02-03T15:05:24.148Z,0.50
2023-02-03T15:10:43.884Z,0.80
2023-02-03T15:15:51.340Z,1.35
2023-02-03T15:20:55.470Z,1.88
2023-02-03T15:26:03.279Z,0.93
2023-02-03T15:31:26.956Z,2.03
2023-02-03T15:36:40.899Z,1.38
2023-02-03T15:41:44.307Z,2.13
2023-02-03T15:46:51.754Z,2.55
2023-02-03T15:52:23.354Z,2.55
2023-02-03T15:57:34.642Z,3.72
2023-02-03T16:02:43.397Z,1.88
2023-02-03T16:07:45.562Z,2.78
2023-02-03T16:12:47.662Z,2.17
2023-02-03T16:17:57.175Z,2.38
2023-02-03T16:23:16.425Z,2.63
2023-02-03T16:28:37.304Z,1.77
2023-02-03T16:33:58.595Z,1.80
2023-02-03T16:39:29.643Z,1.90
2023-02-03T16:44:50.295Z,2.97
2023-02-03T16:50:11.054Z,2.95
2023-02-03T16:55:13.168Z,3.45
2023-02-03T17:00:15.699Z,2.72
2023-02-03T17:05:18.781Z,2.92
2023-02-03T17:10:21.240Z,2.38
2023-02-03T17:15:23.466Z,3.47
2023-02-03T17:20:26.176Z,4.30
2023-02-03T17:25:28.727Z,9.70
2023-02-03T17:30:34.185Z,18.95
2023-02-03T17:35:36.431Z,10.30
2023-02-03T17:56:49.501Z,1.75
2023-02-03T18:01:53.097Z,2.58
2023-02-03T18:06:55.394Z,2.90
2023-02-03T18:11:57.755Z,2.67
2023-02-03T18:17:00.491Z,6.53
2023-02-03T18:22:02.679Z,4.75
2023-02-03T18:27:05.565Z,7.43
2023-02-03T18:32:07.811Z,10.95
2023-02-03T18:37:10.017Z,3.33
2023-02-03T18:42:12.154Z,2.45
2023-02-03T18:47:14.246Z,2.80
2023-02-03T18:52:16.454Z,3.70
2023-02-03T18:57:18.586Z,2.90
2023-02-03T19:02:21.677Z,2.85
2023-02-03T19:07:24.353Z,3.88
2023-02-03T19:12:27.632Z,2.58
2023-02-03T19:17:29.795Z,3.40
2023-02-03T19:22:33.375Z,3.30
2023-02-03T19:27:35.642Z,4.15
2023-02-03T19:32:37.712Z,2.55
2023-02-03T19:37:39.753Z,2.50
2023-02-03T19:42:41.847Z,2.10
2023-02-03T19:47:43.987Z,2.05
2023-02-03T19:52:47.216Z,1.67
2023-02-03T19:57:49.965Z,2.63
2023-02-03T20:02:52.028Z,3.22
2023-02-03T20:07:54.459Z,2.85
2023-02-03T20:12:56.574Z,2.75
2023-02-03T20:17:58.656Z,3.72
2023-02-03T20:23:00.936Z,6.32
2023-02-03T20:28:04.301Z,4.65
2023-02-03T20:33:06.463Z,3.10
2023-02-03T20:38:08.507Z,3.05
2023-02-03T20:43:21.153Z,2.63
2023-02-03T20:48:25.659Z,2.78
2023-02-03T20:53:28.190Z,2.70
2023-02-03T20:58:34.387Z,2.20
2023-02-03T21:03:54.950Z,2.10
2023-02-03T21:09:08.720Z,2.08
2023-02-03T21:14:21.760Z,1.95
2023-02-03T21:19:32.883Z,2.17
2023-02-03T21:24:38.094Z,2.67
2023-02-03T21:29:40.770Z,2.60
2023-02-03T21:34:44.149Z,6.07
2023-02-03T21:39:47.585Z,13.00
2023-02-03T21:44:49.917Z,20.65
2023-02-03T21:49:51.998Z,13.15
2023-02-03T21:54:54.130Z,20.02
2023-02-03T21:59:57.223Z,12.75
2023-02-03T22:04:59.358Z,7.45
2023-02-03T22:10:01.482Z,4.47
2023-02-03T22:15:03.808Z,4.38
2023-02-03T22:20:06.345Z,4.47
2023-02-03T22:25:08.818Z,3.00
2023-02-03T22:30:14.592Z,1.88
2023-02-03T22:35:16.987Z,3.03
2023-02-03T22:40:19.598Z,1.40
2023-02-03T22:45:21.866Z,1.80
2023-02-03T22:50:34.637Z,1.58
2023-02-03T22:55:38.486Z,1.90
2023-02-03T23:00:40.908Z,2.10
2023-02-03T23:05:43.033Z,1.60
2023-02-03T23:10:45.168Z,1.25
2023-02-03T23:15:48.356Z,1.88
2023-02-03T23:20:50.590Z,1.33
2023-02-03T23:25:52.700Z,1.60
2023-02-03T23:30:56.025Z,2.13
2023-02-03T23:35:58.260Z,2.15
2023-02-03T23:41:00.300Z,1.65
2023-02-03T23:46:02.531Z,2.33
2023-02-03T23:51:04.745Z,1.55
2023-02-03T23:56:07.258Z,1.63
